KPPQ

Details ICAO KPPQ
Name PITTSFIELD PENSTONE MUNI
Region United States
Timezone America/Chicago (UTC-6.0)
Plans Departing 0
Arriving 0
Stats Elevation 710 ft / 216 m (AMSL)
Location 39.638902° -90.778561°
Runways 1
Magnetic Variation 1.199° W
Sunrise 2017-12-14 13:17:38 UTC / 2017-12-14 07:17:38 Local
Sunset 2017-12-14 22:41:00 UTC / 2017-12-14 16:41:00 Local
Advertisement - Login to hide

Runways

ID Width Length Bearing (true) Bearing (mag) Surface Threshold Offset Overrun Length
13 60 ft / 18 m 4,000 ft / 1,219 m 135.05° 136.25° Asphalt 0 ft / 0 m 0 ft / 0 m
31 60 ft / 18 m 4,000 ft / 1,219 m 315.06° 316.26° Asphalt 0 ft / 0 m 0 ft / 0 m

Map

Weather


0- 5 10 15 20 25 30 35+ Temperature / ° C

Clouds and Precipitation
Forecast for 2017-12-14 18:00 UTC. Updated 2 hours ago

Ground ~20,000 ft ~40,000 ft Winds

METAR

KPPQ 141515Z AUTO 33006KT 10SM OVC025 M02/M08 A3010 RMK AO2 T10211079

TAF

Not found

Frequencies

Unicom 122.80 MHz CTAF/UNICOM
Warning: Do not use this data for real-world aviation or navigation. No guarantee of current accuracy is given.